x

Point Arguello, Ca (ptgc1) Weather Station

9:00am - Wed 1st Mar 2017 All times are PST. -8 hours from GMT.

  • Wind
    3mph
  • Air Temp 55°f
  • Sea Pressure 1026.6mb
  • Point Arguello, Ca
  • Point Arguello, Ca

More Historic Weather Station data

Upgrade to MSW Pro to gain access to the past 30 days of data for over 8000 Wavebouys and Weather Stations around the globe.

Join Pro

Comparision Forecast

View Surf forecast
   
Wed 03/01 9:00am 3
mph
1026.6mb 55f
8:00am 7 8 mph 1026mb 49f
7:00am 9 14 mph 1025.6mb 49f
6:00am 11 15 mph 1025.1mb 48f
5:00am 8 9 mph 1024.6mb 48f
4:00am 17 18 mph 1024.5mb 50f
3:00am 11 13 mph 1024.6mb 48f
2:00am 17 18 mph 1024.7mb 51f
1:00am 15 17 mph 1025mb 51f
12:00am 16 20 mph 1024.7mb 51f
Tue 02/28 11:00pm 15 20 mph 1024.6mb 51f
10:00pm 16 20 mph 1024.5mb 51f
9:00pm 20 21 mph 1024.2mb 52f
8:00pm 30 33 mph 1023.6mb 53f
7:00pm 28 31 mph 1023.3mb 53f
6:00pm 26 29 mph 1023mb 53f
5:00pm 29 31 mph 1022.7mb 53f
4:00pm 24 30 mph 1022.4mb 53f
3:00pm 29 31 mph 1021.7mb 53f
2:00pm 24 26 mph 1021.9mb 52f
1:00pm 23 25 mph 1022.1mb 52f
12:00pm 23 24 mph 1022.6mb 51f
11:00am 22 24 mph 1022.2mb 51f
10:00am 23 25 mph 1021.7mb 51f
9:00am 23 24 mph 1021.1mb 50f
8:00am 25 28 mph 1020.2mb 50f
7:00am 16 20 mph 1019.2mb 46f
6:00am 17 20 mph 1018.1mb 47f
5:00am 16 20 mph 1017mb 47f
4:00am 20 24 mph 1016.2mb 48f
3:00am 17 20 mph 1015.9mb 49f
2:00am 15 17 mph 1015.7mb 49f
1:00am 14 16 mph 1015.2mb 49f
12:00am 24 25 mph 1014.6mb 52f
Mon 02/27 11:00pm 25 28 mph 1014.6mb 52f
10:00pm 29 30 mph 1014.3mb 51f
9:00pm 30 32 mph 1013.8mb 51f
8:00pm 32 34 mph 1013.2mb 51f
7:00pm 31 34 mph 1012.8mb 52f
6:00pm 29 31 mph 1012.8mb 52f
5:00pm 25 28 mph 1012.4mb 53f
4:00pm 25 28 mph 1012.1mb 53f
3:00pm 23 24 mph 1012mb 52f
2:00pm 22 24 mph 1012.8mb 52f
1:00pm 22 24 mph 1012.8mb 52f
12:00pm 21 23 mph 1013.3mb 52f
11:00am 18 20 mph 1013.7mb 51f
10:00am 15 16 mph 1014.1mb 51f
9:00am 13 15 mph 1013.4mb 51f
8:00am 13 15 mph 1013mb 50f
7:00am 11 13 mph 1012.5mb 50f
6:00am 10 11 mph 1012.2mb 50f
5:00am 8 9 mph 1012.6mb 49f
4:00am 6 7 mph 1012.6mb 50f
3:00am 7 8 mph 1012.8mb 50f
2:00am 3
mph
1013.4mb 50f
1:00am 3
mph
1013.9mb 51f
12:00am 2
mph
1014.2mb 51f
Sun 02/26 11:00pm 3 5 mph 1014.2mb 51f
10:00pm 3 5 mph 1014mb 51f
9:00pm 2 3 mph 1014mb 52f
8:00pm  -  1 mph 1014.1mb 52f
7:00pm 1 2 mph 1014.1mb 52f
6:00pm 8 10 mph 1014.1mb 52f
5:00pm 5 9 mph 1014.1mb 53f
4:00pm 5 8 mph 1014.3mb 53f
3:00pm 9 14 mph 1014.3mb 53f
2:00pm 10 17 mph 1014.7mb 53f
1:00pm 13 21 mph 1014.4mb 52f
12:00pm 9 18 mph 1014.9mb 51f
11:00am 9 17 mph 1016mb 51f
10:00am 2 8 mph 1016.8mb 51f
9:00am 6 7 mph 1016.1mb 51f
8:00am 5 6 mph 1015.8mb 50f
7:00am 8 11 mph 1015.2mb 47f
6:00am 8 13 mph 1014.6mb 47f
5:00am 3 8 mph 1013.9mb 47f
4:00am 10 14 mph 1014mb 48f
3:00am 28 31 mph 1012.7mb 49f
2:00am 13 15 mph 1014.8mb 47f
1:00am 7 8 mph 1015.8mb 49f
12:00am 8 10 mph 1016.5mb 49f
Sat 02/25 11:00pm 10 11 mph 1017.2mb 49f
10:00pm 7
mph
1017.5mb 49f
9:00pm 8 9 mph 1017.7mb 51f
8:00pm 11 13 mph 1017.8mb 51f